LKTB/BRQ METAR and TAF weather

Enter ICAO airport designator
Station Type Date Time Source
LKTB METAR 2019/10/15 22:00 UTC NOAA

LKTB 152200Z 10008KT CAVOK 15/12 Q1008 NOSIG


Station Type Date Time Source
LKTB Decoded METAR 2019/10/15 22:00 UTC NOAA

Brno / Turany, Czech Republic (LKTB) 49-09N 016-42E 246M
Oct 15, 2019 - 06:00 PM EDT / 2019.10.15 2200 UTC
Wind: from the E (100 degrees) at 9 MPH (8 KT):0
Visibility: greater than 7 mile(s):0
Temperature: 59 F (15 C)
Dew Point: 53 F (12 C)
Relative Humidity: 82%
Pressure (altimeter): 29.77 in. Hg (1008 hPa)
ob: LKTB 152200Z 10008KT CAVOK 15/12 Q1008 NOSIG
cycle: 22

Station Type Date Time Source
LKTB TAF 2019/10/15 18:26 UTC NOAA

TAF LKTB 151700Z 1518/1700 13010KT CAVOK
TEMPO 1518/1521 15012G22KT
BECMG 1608/1610 26008KT 9999 RA BKN030
TEMPO 1610/1616 8000 RA BKN025
BECMG 1616/1618 VRB02KT CAVOK
BECMG 1621/1700 3000 BR BKN010

Example: see airport list